Time;durP1;ratioP1;P1;durP2;ratioP2;P2;SDS_P1;SDS_P2;PMS_P1;PMS_P2;Temp;Humidity;BMP_temperature;BMP_pressure;BME280_temperature;BME280_humidity;BME280_pressure;Samples;Min_cycle;Max_cycle;Signal;HPM_P1;HPM_P2
2021/12/08 00:00:30;;;;;;;3.42;1.48;;;2.00;99.90;;;;;;4971752;28;20042;-67
2021/12/08 00:02:57;;;;;;;2.42;1.50;;;2.00;99.90;;;;;;4986944;28;20022;-66
2021/12/08 00:05:24;;;;;;;4.20;1.60;;;2.00;99.90;;;;;;4971811;28;20046;-66
2021/12/08 00:07:50;;;;;;;3.28;1.38;;;2.00;99.90;;;;;;4970788;28;20052;-67
2021/12/08 00:13:07;;;;;;;2.90;1.08;;;2.00;99.90;;;;;;4948342;28;20512;-66
2021/12/08 00:15:39;;;;;;;1.48;1.38;;;2.00;99.90;;;;;;4971381;28;20050;-66
2021/12/08 00:18:07;;;;;;;3.47;1.48;;;2.10;99.90;;;;;;4971047;28;20406;-67
2021/12/08 00:20:35;;;;;;;3.20;1.33;;;2.10;99.90;;;;;;4971713;28;20034;-66
2021/12/08 00:23:02;;;;;;;3.83;1.50;;;2.10;99.90;;;;;;4971183;28;20072;-67
2021/12/08 00:25:29;;;;;;;1.70;1.00;;;2.10;99.90;;;;;;4970206;28;20053;-66
2021/12/08 00:27:55;;;;;;;3.05;1.20;;;2.10;99.90;;;;;;4969962;28;20030;-66
2021/12/08 00:30:21;;;;;;;2.67;1.40;;;2.10;99.90;;;;;;4970785;28;20033;-67
2021/12/08 00:32:47;;;;;;;2.15;1.30;;;2.10;99.90;;;;;;4971521;28;20030;-66
2021/12/08 00:35:13;;;;;;;3.30;1.30;;;2.10;99.90;;;;;;4971943;28;20052;-66
2021/12/08 00:37:40;;;;;;;1.42;1.33;;;2.10;99.90;;;;;;4987771;28;20042;-66
2021/12/08 00:40:09;;;;;;;3.45;1.50;;;2.10;99.90;;;;;;4970706;28;20656;-67
2021/12/08 00:42:36;;;;;;;1.52;1.10;;;2.10;99.90;;;;;;4970668;28;20428;-67
2021/12/08 00:45:04;;;;;;;2.03;1.25;;;2.10;99.90;;;;;;4971139;28;20049;-66
2021/12/08 00:47:30;;;;;;;4.00;1.38;;;2.10;99.90;;;;;;4970484;28;20042;-67
2021/12/08 00:49:56;;;;;;;1.52;1.30;;;2.10;99.90;;;;;;4971343;28;20023;-67
2021/12/08 00:52:24;;;;;;;2.03;1.20;;;2.10;99.90;;;;;;4971131;28;20038;-67
2021/12/08 00:54:50;;;;;;;1.17;1.15;;;2.20;99.90;;;;;;4969694;28;20113;-66
2021/12/08 00:57:16;;;;;;;1.02;1.00;;;2.10;99.90;;;;;;4970028;28;20026;-67
2021/12/08 00:59:41;;;;;;;1.00;1.00;;;2.20;99.90;;;;;;4970294;28;20105;-67
2021/12/08 01:02:07;;;;;;;1.15;0.90;;;2.20;99.90;;;;;;4977748;28;20026;-66
2021/12/08 01:04:34;;;;;;;1.38;1.17;;;2.20;99.90;;;;;;4970868;28;20437;-66
2021/12/08 01:07:01;;;;;;;1.10;0.98;;;2.30;99.90;;;;;;4970364;28;20033;-66
2021/12/08 01:09:27;;;;;;;1.70;0.98;;;2.40;99.90;;;;;;4969224;28;20424;-66
2021/12/08 01:11:54;;;;;;;2.28;0.85;;;2.40;99.90;;;;;;4971155;28;20031;-66
2021/12/08 01:14:20;;;;;;;2.53;1.20;;;2.50;99.90;;;;;;4970450;28;20033;-67
2021/12/08 01:16:46;;;;;;;1.75;1.05;;;2.50;99.90;;;;;;4970821;28;20018;-66
2021/12/08 01:19:12;;;;;;;1.23;0.98;;;2.50;99.90;;;;;;4969991;28;20066;-66
2021/12/08 01:21:37;;;;;;;0.90;0.90;;;2.50;99.90;;;;;;4970803;28;20035;-66
2021/12/08 01:24:03;;;;;;;1.75;1.10;;;2.50;99.90;;;;;;4971266;28;20050;-66
2021/12/08 01:26:29;;;;;;;1.52;1.02;;;2.50;99.90;;;;;;4970497;28;20100;-66
2021/12/08 01:28:56;;;;;;;1.40;0.80;;;2.50;99.90;;;;;;4970527;28;20031;-66
2021/12/08 01:31:24;;;;;;;1.80;1.10;;;2.50;99.90;;;;;;4970691;28;20030;-67
2021/12/08 01:33:50;;;;;;;2.88;0.90;;;2.60;99.90;;;;;;4971213;28;20486;-68
2021/12/08 01:36:16;;;;;;;1.25;1.00;;;2.60;99.90;;;;;;4986167;28;21422;-66
2021/12/08 01:38:42;;;;;;;1.20;0.80;;;2.60;99.90;;;;;;4987454;28;20073;-66
2021/12/08 01:41:08;;;;;;;4.07;1.10;;;2.60;99.90;;;;;;4961998;28;20019;-68
2021/12/08 01:45:57;;;;;;;1.25;1.00;;;2.60;99.90;;;;;;4975468;28;20031;-66
2021/12/08 01:46:30;;;;;;;2.15;0.90;;;2.60;99.90;;;;;;4986092;28;20018;-65
2021/12/08 01:48:56;;;;;;;2.63;1.35;;;2.50;99.90;;;;;;4970182;28;20038;-66
2021/12/08 01:51:22;;;;;;;3.63;0.90;;;2.40;99.90;;;;;;4969318;28;20035;-66
2021/12/08 01:53:51;;;;;;;2.63;1.20;;;2.40;99.90;;;;;;4971002;28;20402;-65
2021/12/08 01:56:18;;;;;;;4.85;1.10;;;2.30;99.90;;;;;;4970412;28;20026;-65
2021/12/08 01:58:45;;;;;;;1.08;0.90;;;2.20;99.90;;;;;;4971180;28;20073;-66
2021/12/08 02:01:14;;;;;;;2.20;0.98;;;2.20;99.90;;;;;;4972173;28;20052;-66
2021/12/08 02:03:41;;;;;;;2.72;1.00;;;2.10;99.90;;;;;;4974833;28;20041;-66
2021/12/08 02:06:09;;;;;;;1.73;1.00;;;2.10;99.90;;;;;;4971804;28;20057;-66
2021/12/08 02:08:36;;;;;;;1.83;1.00;;;2.00;99.90;;;;;;4968702;28;20065;-66
2021/12/08 02:11:06;;;;;;;2.88;1.10;;;2.00;99.90;;;;;;4973169;28;20033;-66
2021/12/08 02:13:38;;;;;;;2.67;0.80;;;1.90;99.90;;;;;;4973709;28;20026;-66
2021/12/08 02:16:10;;;;;;;2.05;1.00;;;1.80;99.90;;;;;;4973637;28;20121;-67
2021/12/08 02:18:37;;;;;;;;;;;1.70;99.90;;;;;;4958920;28;20037;-65
2021/12/08 02:21:25;;;;;;;0.93;0.93;;;1.60;99.90;;;;;;4973198;28;19955;-67
2021/12/08 02:23:51;;;;;;;1.77;1.10;;;1.60;99.90;;;;;;4973536;28;20712;-66
2021/12/08 02:26:17;;;;;;;0.98;0.90;;;1.50;99.90;;;;;;4972479;28;20037;-67
2021/12/08 02:28:44;;;;;;;0.93;0.93;;;1.50;99.90;;;;;;4972611;28;20490;-66
2021/12/08 02:31:13;;;;;;;4.18;1.30;;;1.40;99.90;;;;;;4972530;28;20026;-66
2021/12/08 02:49:49;;;;;;;1.17;1.08;;;1.30;99.90;;;;;;4989992;28;20620;-65
2021/12/08 02:52:16;;;;;;;1.85;1.13;;;1.30;99.90;;;;;;4973017;28;20125;-66
2021/12/08 02:54:47;;;;;;;3.53;1.08;;;1.30;99.90;;;;;;4972641;28;20109;-67
2021/12/08 02:57:15;;;;;;;1.47;1.20;;;1.30;99.90;;;;;;4973080;28;20107;-66
2021/12/08 02:59:43;;;;;;;3.83;1.40;;;1.20;99.90;;;;;;4972431;28;20282;-67
2021/12/08 03:02:09;;;;;;;1.90;1.23;;;1.20;99.90;;;;;;4972396;28;20401;-66
2021/12/08 03:04:36;;;;;;;2.72;1.67;;;1.20;99.90;;;;;;4972689;28;20026;-67
2021/12/08 03:07:02;;;;;;;3.08;1.40;;;1.20;99.90;;;;;;4971509;28;20384;-65
2021/12/08 03:09:28;;;;;;;1.42;1.33;;;1.20;99.90;;;;;;4972053;28;20030;-67
2021/12/08 03:11:56;;;;;;;2.83;1.40;;;1.20;99.90;;;;;;4980428;28;20033;-66
2021/12/08 03:14:22;;;;;;;2.10;1.40;;;1.20;99.90;;;;;;4972202;28;20466;-67
2021/12/08 03:16:53;;;;;;;4.15;1.58;;;1.10;99.90;;;;;;4972996;28;20086;-66
2021/12/08 03:19:22;;;;;;;3.08;1.38;;;1.10;99.90;;;;;;4970889;28;20030;-66
2021/12/08 03:21:49;;;;;;;2.38;1.30;;;1.20;99.90;;;;;;4971315;28;20022;-66
2021/12/08 03:27:10;;;;;;;2.33;1.67;;;1.20;99.90;;;;;;4980299;28;20034;-66
2021/12/08 03:32:17;;;;;;;2.15;1.60;;;1.20;99.90;;;;;;4985376;28;20061;-66
2021/12/08 03:34:52;;;;;;;3.45;1.60;;;1.20;99.90;;;;;;4971944;28;20058;-67
2021/12/08 03:37:20;;;;;;;3.08;1.52;;;1.20;99.90;;;;;;4971038;28;20603;-66
2021/12/08 03:39:46;;;;;;;4.15;1.75;;;1.30;99.90;;;;;;4979618;28;20406;-66
2021/12/08 03:42:12;;;;;;;3.40;1.80;;;1.30;99.90;;;;;;4972321;28;20022;-66
2021/12/08 03:44:38;;;;;;;1.75;1.60;;;1.30;99.90;;;;;;4973920;28;20054;-66
2021/12/08 03:47:13;;;;;;;1.80;1.60;;;1.30;99.90;;;;;;4971569;28;20027;-66
2021/12/08 03:49:38;;;;;;;1.60;1.50;;;1.30;99.90;;;;;;4971605;28;20061;-68
2021/12/08 03:52:04;;;;;;;1.48;1.38;;;1.30;99.90;;;;;;4972473;28;20074;-65
2021/12/08 03:54:30;;;;;;;2.25;1.52;;;1.40;99.90;;;;;;4971798;28;20555;-66
2021/12/08 03:56:56;;;;;;;2.42;1.98;;;1.40;99.90;;;;;;4971911;28;20141;-66
2021/12/08 03:59:22;;;;;;;2.97;1.73;;;1.40;99.90;;;;;;4971210;28;20124;-66
2021/12/08 04:01:48;;;;;;;2.88;1.70;;;1.50;99.90;;;;;;4971917;28;20027;-66
2021/12/08 04:04:14;;;;;;;2.13;1.85;;;1.50;99.90;;;;;;4969982;28;20530;-67
2021/12/08 04:06:52;;;;;;;4.43;1.95;;;1.50;99.90;;;;;;4971711;28;20164;-66
2021/12/08 04:09:34;;;;;;;3.20;1.80;;;1.50;99.90;;;;;;4970904;28;20049;-67
2021/12/08 04:12:01;;;;;;;1.88;1.67;;;1.50;99.90;;;;;;4971592;28;20031;-67
2021/12/08 04:14:30;;;;;;;5.10;2.03;;;1.50;99.90;;;;;;4972004;28;20133;-66
2021/12/08 04:17:01;;;;;;;3.90;1.90;;;1.60;99.90;;;;;;4971507;28;20038;-67
2021/12/08 04:19:28;;;;;;;2.85;2.13;;;1.60;99.90;;;;;;4967158;28;20042;-66
2021/12/08 04:21:57;;;;;;;3.75;2.33;;;1.60;99.90;;;;;;4971417;28;20497;-67
2021/12/08 04:24:23;;;;;;;2.53;2.20;;;1.60;99.90;;;;;;4971164;28;20033;-67
2021/12/08 04:26:55;;;;;;;6.50;2.22;;;1.60;99.90;;;;;;4970738;28;20117;-66
2021/12/08 04:29:26;;;;;;;4.55;2.08;;;1.60;99.90;;;;;;4965621;28;20030;-67
2021/12/08 04:31:53;;;;;;;6.20;2.40;;;1.50;99.90;;;;;;4969710;28;20089;-67
2021/12/08 04:34:26;;;;;;;3.47;2.40;;;1.50;99.90;;;;;;4969805;28;20033;-66
2021/12/08 04:36:55;;;;;;;3.40;2.00;;;1.50;99.90;;;;;;4970233;28;20022;-65
2021/12/08 04:39:29;;;;;;;3.08;2.42;;;1.50;99.90;;;;;;4970822;28;20490;-66
2021/12/08 04:42:03;;;;;;;2.85;2.33;;;1.50;99.90;;;;;;4971277;28;20036;-66
2021/12/08 04:44:37;;;;;;;3.55;2.42;;;1.50;99.90;;;;;;4971110;28;20027;-66
2021/12/08 04:52:16;;;;;;;3.03;2.45;;;1.50;99.90;;;;;;4989818;28;20114;-71
2021/12/08 05:08:35;;;;;;;6.30;2.65;;;1.50;99.90;;;;;;5002403;28;20041;-71
2021/12/08 05:11:03;;;;;;;3.45;2.83;;;1.50;99.90;;;;;;4982575;28;20019;-72
2021/12/08 05:13:29;;;;;;;2.75;2.33;;;1.60;99.90;;;;;;5039580;28;20029;-71
2021/12/08 05:15:56;;;;;;;4.45;2.80;;;1.60;99.90;;;;;;5036922;28;20114;-71
2021/12/08 05:18:31;;;;;;;4.68;3.40;;;1.70;99.90;;;;;;5062521;28;20026;-71
2021/12/08 05:21:27;;;;;;;3.03;2.63;;;1.70;99.90;;;;;;5056579;28;20099;-69
2021/12/08 05:23:58;;;;;;;5.20;3.08;;;1.70;99.90;;;;;;5042921;28;20027;-72
2021/12/08 05:26:28;;;;;;;5.85;2.97;;;1.70;99.90;;;;;;5060270;28;20027;-70
2021/12/08 05:29:00;;;;;;;4.45;2.88;;;1.70;99.90;;;;;;5052429;28;20037;-71
2021/12/08 05:31:29;;;;;;;5.63;3.45;;;1.70;99.90;;;;;;5048286;28;20034;-69
2021/12/08 05:33:55;;;;;;;5.05;2.60;;;1.80;99.90;;;;;;5040719;28;20160;-71
2021/12/08 05:36:21;;;;;;;3.92;2.90;;;1.80;99.90;;;;;;5035481;28;20031;-71
2021/12/08 05:38:48;;;;;;;5.95;3.78;;;1.80;99.90;;;;;;5049376;28;20034;-71
2021/12/08 05:41:24;;;;;;;6.38;3.38;;;1.80;99.90;;;;;;5049457;28;20414;-70
2021/12/08 05:43:50;;;;;;;5.22;3.70;;;1.80;99.90;;;;;;5036891;28;20134;-70
2021/12/08 05:46:18;;;;;;;5.72;3.47;;;1.80;99.90;;;;;;5040954;28;20213;-71
2021/12/08 05:48:47;;;;;;;5.03;3.63;;;1.80;99.90;;;;;;5045780;28;20095;-70
2021/12/08 05:51:17;;;;;;;6.00;3.38;;;1.80;99.90;;;;;;5033679;28;20379;-70
2021/12/08 05:53:46;;;;;;;4.30;3.63;;;1.80;99.90;;;;;;5049503;28;20406;-70
2021/12/08 05:56:13;;;;;;;4.65;3.42;;;1.80;99.90;;;;;;5069481;28;20053;-71
2021/12/08 05:58:40;;;;;;;7.00;4.00;;;1.80;99.90;;;;;;5058303;28;20027;-70
2021/12/08 06:01:26;;;;;;;5.78;3.50;;;1.80;99.90;;;;;;5042515;28;20030;-71
2021/12/08 06:03:52;;;;;;;6.63;3.85;;;1.80;99.90;;;;;;4978805;28;20026;-71
2021/12/08 06:06:21;;;;;;;4.35;3.35;;;1.80;99.90;;;;;;5052909;28;20023;-70
2021/12/08 06:08:47;;;;;;;4.80;3.65;;;1.80;99.90;;;;;;5049843;28;20018;-71
2021/12/08 06:11:14;;;;;;;7.70;4.32;;;1.90;99.90;;;;;;5035198;28;20019;-71
2021/12/08 06:13:42;;;;;;;7.82;3.92;;;1.90;99.90;;;;;;4979603;28;20493;-70
2021/12/08 06:16:08;;;;;;;5.25;3.80;;;1.90;99.90;;;;;;5026857;28;20363;-71
2021/12/08 06:18:38;;;;;;;9.43;4.03;;;2.00;99.90;;;;;;5068506;28;20116;-71
2021/12/08 06:21:08;;;;;;;11.82;4.75;;;2.00;99.90;;;;;;5051342;28;20394;-69
2021/12/08 06:23:35;;;;;;;7.95;4.75;;;2.00;99.90;;;;;;5051434;28;20069;-70
2021/12/08 06:26:01;;;;;;;7.35;4.70;;;2.00;99.90;;;;;;5048834;28;20054;-70
2021/12/08 06:28:27;;;;;;;6.35;4.68;;;2.00;99.90;;;;;;5047759;28;20026;-70
2021/12/08 06:30:53;;;;;;;8.27;4.72;;;2.00;99.90;;;;;;5073845;28;20094;-70
2021/12/08 06:33:20;;;;;;;10.63;5.32;;;2.00;99.90;;;;;;4998819;28;20067;-70
2021/12/08 06:36:08;;;;;;;10.63;4.57;;;2.00;99.90;;;;;;5047520;28;20475;-70
2021/12/08 06:38:35;;;;;;;8.98;5.07;;;2.00;99.90;;;;;;5057200;28;20026;-69
2021/12/08 06:41:11;;;;;;;11.00;5.72;;;2.00;99.90;;;;;;5058245;28;20489;-68
2021/12/08 06:43:42;;;;;;;9.07;5.10;;;2.00;99.90;;;;;;5059356;28;20109;-68
2021/12/08 06:46:08;;;;;;;9.73;5.97;;;2.00;99.90;;;;;;5042594;28;20023;-69
2021/12/08 06:48:43;;;;;;;12.38;5.47;;;2.10;99.90;;;;;;4972202;28;20031;-69
2021/12/08 06:51:25;;;;;;;9.20;5.72;;;2.00;99.90;;;;;;5030084;28;20462;-69
2021/12/08 06:53:58;;;;;;;15.15;6.35;;;2.00;99.90;;;;;;4990783;28;20077;-69
2021/12/08 06:56:34;;;;;;;14.10;5.53;;;2.00;99.90;;;;;;5040014;28;20506;-69
2021/12/08 06:59:06;;;;;;;11.35;6.22;;;2.00;99.90;;;;;;5040327;28;20124;-69
2021/12/08 07:02:06;;;;;;;15.75;6.28;;;2.00;99.90;;;;;;5059111;28;20027;-69
2021/12/08 07:05:07;;;;;;;14.30;6.68;;;1.90;99.90;;;;;;5056349;28;20072;-68
2021/12/08 07:07:33;;;;;;;11.68;6.10;;;1.90;99.90;;;;;;5075186;28;20068;-69
2021/12/08 07:10:08;;;;;;;12.77;6.93;;;1.90;99.90;;;;;;5057402;28;20035;-69
2021/12/08 07:12:46;;;;;;;11.10;6.45;;;1.90;99.90;;;;;;5023578;28;20038;-70
2021/12/08 07:15:45;;;;;;;11.30;6.95;;;1.90;99.90;;;;;;5055331;28;20034;-70
2021/12/08 07:18:39;;;;;;;13.50;6.40;;;2.00;99.90;;;;;;5062273;28;20027;-70
2021/12/08 07:21:09;;;;;;;12.40;6.82;;;2.00;99.90;;;;;;5057397;28;20038;-69
2021/12/08 07:23:49;;;;;;;14.55;6.53;;;2.00;99.90;;;;;;5033405;28;20054;-69
2021/12/08 07:26:25;;;;;;;12.95;6.40;;;2.10;99.90;;;;;;5058589;28;20022;-69
2021/12/08 07:28:55;;;;;;;13.25;6.35;;;2.10;99.90;;;;;;5042291;28;20027;-69
2021/12/08 07:31:40;;;;;;;11.63;6.10;;;2.00;99.90;;;;;;5049597;28;20027;-69
2021/12/08 07:34:15;;;;;;;10.60;6.30;;;2.10;99.90;;;;;;5056357;28;20033;-69
2021/12/08 07:36:43;;;;;;;10.35;6.38;;;2.10;99.90;;;;;;5000988;28;20033;-69
2021/12/08 07:39:18;;;;;;;8.13;6.07;;;2.20;99.90;;;;;;5047871;28;20466;-69
2021/12/08 07:41:51;;;;;;;9.05;5.00;;;2.20;99.90;;;;;;5040929;28;20031;-69
2021/12/08 07:44:18;;;;;;;13.02;7.10;;;2.30;99.90;;;;;;5058310;28;20026;-69
2021/12/08 07:46:59;;;;;;;10.52;7.05;;;2.40;99.90;;;;;;5056210;28;20047;-69
2021/12/08 07:49:32;;;;;;;12.93;6.70;;;2.50;99.90;;;;;;5049036;28;20028;-69
2021/12/08 07:52:00;;;;;;;11.88;5.13;;;2.60;99.90;;;;;;5022873;28;20432;-69
2021/12/08 07:54:30;;;;;;;7.50;4.65;;;2.70;99.90;;;;;;5058011;28;20031;-69
2021/12/08 07:56:58;;;;;;;11.30;5.85;;;2.80;99.90;;;;;;5056289;28;20038;-69
2021/12/08 07:59:24;;;;;;;8.88;6.05;;;2.80;99.90;;;;;;5046312;28;20046;-69
2021/12/08 08:01:57;;;;;;;11.95;6.28;;;2.80;99.90;;;;;;5057943;28;20079;-69
2021/12/08 08:04:25;;;;;;;13.43;7.63;;;2.90;99.90;;;;;;5056259;28;20027;-68
2021/12/08 08:06:55;;;;;;;24.10;9.27;;;2.90;99.90;;;;;;5064234;28;20121;-68
2021/12/08 08:09:25;;;;;;;15.15;7.38;;;2.90;99.90;;;;;;5047038;28;20054;-69
2021/12/08 08:11:57;;;;;;;12.27;6.65;;;2.80;99.90;;;;;;5055902;28;20029;-70
2021/12/08 08:14:27;;;;;;;12.93;7.43;;;2.80;99.90;;;;;;5056372;28;20030;-70
2021/12/08 08:16:57;;;;;;;13.23;7.60;;;2.80;99.90;;;;;;5057157;28;20030;-70
2021/12/08 08:19:27;;;;;;;13.00;7.30;;;2.80;99.90;;;;;;5040666;28;20064;-69
2021/12/08 08:21:59;;;;;;;11.20;7.15;;;2.80;99.90;;;;;;5051716;28;20025;-70
2021/12/08 08:24:25;;;;;;;27.60;14.77;;;2.80;99.90;;;;;;5034404;28;20030;-68
2021/12/08 08:26:53;;;;;;;16.85;9.45;;;2.80;99.90;;;;;;5045581;28;20031;-69
2021/12/08 08:29:19;;;;;;;13.85;8.43;;;2.90;99.90;;;;;;5044463;28;20046;-68
2021/12/08 08:31:59;;;;;;;14.55;8.32;;;2.90;99.90;;;;;;5057289;28;20026;-68
2021/12/08 08:34:35;;;;;;;18.17;9.35;;;2.90;99.90;;;;;;5049072;28;20034;-70
2021/12/08 08:37:02;;;;;;;15.05;9.00;;;2.90;99.90;;;;;;4990649;28;20702;-69
2021/12/08 08:39:33;;;;;;;14.82;8.23;;;2.90;99.90;;;;;;5037487;28;20386;-69
2021/12/08 08:42:12;;;;;;;18.02;9.93;;;2.90;99.90;;;;;;5043768;28;20031;-69
2021/12/08 08:44:46;;;;;;;18.85;8.55;;;3.00;99.90;;;;;;5045546;28;20415;-69
2021/12/08 08:47:27;;;;;;;17.73;8.68;;;3.00;99.90;;;;;;5073175;28;20024;-70
2021/12/08 08:49:53;;;;;;;16.20;9.25;;;3.00;99.90;;;;;;5050341;28;20040;-69
2021/12/08 08:52:42;;;;;;;17.33;8.93;;;3.00;99.90;;;;;;5022593;28;20034;-70
2021/12/08 08:55:38;;;;;;;17.20;8.50;;;3.00;99.90;;;;;;5044013;28;20490;-69
2021/12/08 08:58:07;;;;;;;14.88;8.68;;;3.10;99.90;;;;;;5035263;28;20042;-70
2021/12/08 09:00:38;;;;;;;13.98;7.47;;;3.10;99.90;;;;;;5050736;28;20429;-69
2021/12/08 09:03:08;;;;;;;14.50;8.10;;;3.10;99.90;;;;;;5059374;28;20030;-69
2021/12/08 09:05:40;;;;;;;15.80;7.80;;;3.10;99.90;;;;;;5014814;28;20073;-70
2021/12/08 09:08:07;;;;;;;;;;;3.20;99.90;;;;;;5053186;28;20022;-70
2021/12/08 09:10:45;;;;;;;12.48;7.07;;;3.20;99.90;;;;;;5040570;28;19997;-69
2021/12/08 09:13:17;;;;;;;14.77;7.88;;;3.20;99.90;;;;;;5012929;28;20444;-69
2021/12/08 09:15:49;;;;;;;15.75;8.63;;;3.20;99.90;;;;;;4988305;28;20035;-69
2021/12/08 09:18:34;;;;;;;14.52;7.15;;;3.20;99.90;;;;;;5024770;28;20406;-69
2021/12/08 09:21:29;;;;;;;15.13;8.45;;;3.20;99.90;;;;;;5029494;28;20220;-69
2021/12/08 09:24:03;;;;;;;15.52;7.93;;;3.20;99.90;;;;;;5003195;28;20439;-69
2021/12/08 09:26:31;;;;;;;14.02;8.00;;;3.30;99.90;;;;;;5036398;28;20023;-69
2021/12/08 09:29:11;;;;;;;16.42;7.97;;;3.30;99.90;;;;;;5053728;28;20030;-69
2021/12/08 09:32:08;;;;;;;15.48;7.85;;;3.30;99.90;;;;;;5028453;28;20079;-69
2021/12/08 09:34:45;;;;;;;20.45;8.73;;;3.30;99.90;;;;;;5041401;28;20062;-69
2021/12/08 09:37:18;;;;;;;15.75;8.00;;;3.30;99.90;;;;;;5052603;28;20490;-70
2021/12/08 09:39:52;;;;;;;16.92;8.55;;;3.30;99.90;;;;;;5051856;28;20047;-68
2021/12/08 09:42:27;;;;;;;14.82;8.18;;;3.30;99.90;;;;;;5062210;28;20035;-69
2021/12/08 09:44:57;;;;;;;16.58;8.40;;;3.30;99.90;;;;;;5055397;28;20022;-69
2021/12/08 09:47:28;;;;;;;15.27;8.57;;;3.40;99.90;;;;;;5069477;28;20031;-70
2021/12/08 09:49:59;;;;;;;15.05;8.18;;;3.40;99.90;;;;;;5042327;28;20053;-69
2021/12/08 09:52:27;;;;;;;15.75;9.68;;;3.40;99.90;;;;;;5016930;28;20077;-70
2021/12/08 09:54:55;;;;;;;15.40;9.48;;;3.40;99.90;;;;;;5051245;28;20027;-71
2021/12/08 09:57:21;;;;;;;19.27;9.35;;;3.50;99.90;;;;;;5037173;28;20466;-69
2021/12/08 09:59:47;;;;;;;17.30;9.18;;;3.50;99.90;;;;;;5035994;28;20113;-70
2021/12/08 10:02:35;;;;;;;93.43;51.10;;;3.50;99.90;;;;;;5036606;28;20422;-69
2021/12/08 10:05:08;;;;;;;23.33;13.65;;;3.50;99.90;;;;;;5069148;28;20027;-71
2021/12/08 10:07:34;;;;;;;17.00;8.77;;;3.60;99.90;;;;;;5040315;28;20037;-69
2021/12/08 10:10:00;;;;;;;13.68;8.10;;;3.60;99.90;;;;;;5071957;28;20406;-69
2021/12/08 10:12:26;;;;;;;14.93;8.55;;;3.60;99.90;;;;;;5016910;28;20034;-69
2021/12/08 10:14:52;;;;;;;16.05;8.68;;;3.70;99.90;;;;;;5055359;28;20026;-68
2021/12/08 10:17:20;;;;;;;14.18;7.60;;;3.70;99.90;;;;;;5042006;28;20137;-67
2021/12/08 10:20:10;;;;;;;14.93;8.13;;;3.60;99.90;;;;;;5054195;28;20113;-70
2021/12/08 10:22:36;;;;;;;13.98;7.97;;;3.60;99.90;;;;;;5018002;28;20026;-69
2021/12/08 10:25:12;;;;;;;16.92;8.32;;;3.70;99.90;;;;;;5044394;28;20027;-69
2021/12/08 10:28:17;;;;;;;14.80;8.48;;;3.60;99.90;;;;;;5038365;28;20079;-70
2021/12/08 10:31:09;;;;;;;13.68;8.27;;;3.70;99.90;;;;;;5051102;28;20058;-70
2021/12/08 10:36:45;;;;;;;13.35;7.82;;;3.70;99.90;;;;;;4992009;28;20084;-69
2021/12/08 10:39:19;;;;;;;14.50;8.02;;;3.80;99.90;;;;;;5048821;28;20030;-70
2021/12/08 10:41:59;;;;;;;16.95;9.77;;;3.80;99.90;;;;;;5040666;28;20022;-70
2021/12/08 10:44:25;;;;;;;17.70;9.30;;;3.80;99.90;;;;;;5045551;28;20533;-69
2021/12/08 10:46:56;;;;;;;22.70;9.18;;;3.80;99.90;;;;;;5045768;28;20034;-69
2021/12/08 10:54:24;;;;;;;17.15;10.10;;;3.80;99.90;;;;;;5052508;28;20103;-69
2021/12/08 10:54:56;;;;;;;18.77;10.32;;;3.70;99.90;;;;;;4991987;28;20167;-69
2021/12/08 10:57:30;;;;;;;18.55;10.50;;;3.70;99.90;;;;;;5008780;28;20121;-68
2021/12/08 11:00:07;;;;;;;21.33;10.15;;;3.60;99.90;;;;;;5049647;28;20046;-69
2021/12/08 11:02:50;;;;;;;20.77;10.90;;;3.60;99.90;;;;;;5060287;23;20031;-64
2021/12/08 11:05:25;;;;;;;26.77;10.40;;;3.60;99.90;;;;;;4959555;28;20066;-67
2021/12/08 11:08:05;;;;;;;20.50;10.18;;;3.60;99.90;;;;;;4947459;28;20434;-66
2021/12/08 11:10:49;;;;;;;23.58;11.82;;;3.60;99.90;;;;;;4947878;28;20031;-67
2021/12/08 11:13:18;;;;;;;22.17;11.48;;;3.60;99.90;;;;;;4949159;28;20035;-66
2021/12/08 11:15:46;;;;;;;29.13;12.00;;;3.60;99.90;;;;;;4948886;28;20467;-68
2021/12/08 11:18:22;;;;;;;23.50;11.68;;;3.70;99.90;;;;;;4941497;28;20439;-67
2021/12/08 11:21:05;;;;;;;20.05;11.35;;;3.60;99.90;;;;;;4947714;28;20031;-67
2021/12/08 11:23:44;;;;;;;24.70;11.80;;;3.70;99.90;;;;;;4967856;28;20149;-66
2021/12/08 11:26:25;;;;;;;19.88;11.65;;;3.70;99.90;;;;;;4953980;28;20068;-67
2021/12/08 11:29:11;;;;;;;23.45;12.32;;;3.70;99.90;;;;;;4953058;28;20368;-67
2021/12/08 11:31:42;;;;;;;25.23;13.35;;;3.70;99.90;;;;;;4960807;28;20035;-67
2021/12/08 11:34:24;;;;;;;25.10;12.68;;;3.70;99.90;;;;;;4950322;28;20336;-66
2021/12/08 11:36:59;;;;;;;25.98;12.68;;;3.70;99.90;;;;;;4957208;28;20105;-67
2021/12/08 11:39:30;;;;;;;24.35;12.20;;;3.70;99.90;;;;;;4937189;28;20044;-67
2021/12/08 11:42:12;;;;;;;28.30;13.02;;;3.70;99.90;;;;;;4968559;28;20062;-67
2021/12/08 11:44:40;;;;;;;25.65;13.25;;;3.70;99.90;;;;;;4952747;28;20414;-67
2021/12/08 11:47:10;;;;;;;28.33;13.93;;;3.70;99.90;;;;;;4944220;28;20390;-66
2021/12/08 11:49:53;;;;;;;28.38;15.05;;;3.70;99.90;;;;;;4940522;28;20038;-67
2021/12/08 11:52:23;;;;;;;26.30;14.55;;;3.70;99.90;;;;;;4945834;29;20371;-67
2021/12/08 11:55:00;;;;;;;27.80;14.90;;;3.60;99.90;;;;;;4954222;28;20042;-66
2021/12/08 11:57:40;;;;;;;28.40;14.82;;;3.70;99.90;;;;;;4943621;28;20049;-67
2021/12/08 12:00:27;;;;;;;28.00;15.77;;;3.60;99.90;;;;;;4951983;28;20026;-67
2021/12/08 12:03:01;;;;;;;30.70;16.17;;;3.60;99.90;;;;;;4960399;28;20042;-66
2021/12/08 12:05:31;;;;;;;30.40;15.43;;;3.60;99.90;;;;;;4946631;29;20035;-67
2021/12/08 12:07:58;;;;;;;28.52;15.90;;;3.60;99.90;;;;;;4944835;28;20023;-67
2021/12/08 12:10:28;;;;;;;28.55;15.15;;;3.70;99.90;;;;;;4947313;28;20276;-66
2021/12/08 12:12:53;;;;;;;28.55;14.55;;;3.60;99.90;;;;;;4954377;28;20023;-67
2021/12/08 12:15:21;;;;;;;26.30;14.60;;;3.60;99.90;;;;;;4951796;28;20501;-66
2021/12/08 12:17:48;;;;;;;27.25;14.20;;;3.70;99.90;;;;;;4951634;28;20101;-67
2021/12/08 12:20:40;;;;;;;25.48;13.70;;;3.60;99.90;;;;;;4950004;28;20031;-67
2021/12/08 12:23:33;;;;;;;25.30;13.63;;;3.60;99.90;;;;;;4974168;28;20506;-67
2021/12/08 12:26:17;;;;;;;25.70;13.23;;;3.60;99.90;;;;;;4968755;28;20038;-66
2021/12/08 12:28:46;;;;;;;25.17;14.38;;;3.60;99.90;;;;;;4952914;28;20095;-67
2021/12/08 12:31:40;;;;;;;23.77;12.82;;;3.60;99.90;;;;;;4953612;28;20019;-67
2021/12/08 12:34:32;;;;;;;26.90;14.07;;;3.60;99.90;;;;;;4953198;28;20030;-67
2021/12/08 12:37:03;;;;;;;18.77;9.70;;;3.60;99.90;;;;;;4945162;28;20041;-65
2021/12/08 12:39:29;;;;;;;25.52;14.27;;;3.60;99.90;;;;;;4953326;28;20034;-67
2021/12/08 12:42:11;;;;;;;26.48;14.35;;;3.60;99.90;;;;;;4953055;28;20659;-67
2021/12/08 12:44:39;;;;;;;26.67;14.25;;;3.70;99.90;;;;;;4953488;28;20023;-67
2021/12/08 12:49:35;;;;;;;23.42;13.45;;;3.60;99.90;;;;;;4958261;28;20053;-67
2021/12/08 12:52:13;;;;;;;25.27;13.77;;;3.70;99.90;;;;;;4953124;28;20182;-67
2021/12/08 12:54:40;;;;;;;24.65;12.65;;;3.70;99.90;;;;;;4953409;28;20031;-67
2021/12/08 12:57:07;;;;;;;22.80;13.05;;;3.70;99.90;;;;;;4968822;28;20031;-67
2021/12/08 12:59:52;;;;;;;24.27;13.43;;;3.70;99.90;;;;;;4952754;28;20039;-67
2021/12/08 13:02:27;;;;;;;22.98;13.30;;;3.70;99.90;;;;;;4953395;28;20030;-66
2021/12/08 13:04:57;;;;;;;22.85;13.48;;;3.70;99.90;;;;;;4951595;28;20035;-67
2021/12/08 13:07:25;;;;;;;25.08;13.55;;;3.70;99.90;;;;;;4949360;28;20095;-67
2021/12/08 13:09:54;;;;;;;21.55;13.13;;;3.70;99.90;;;;;;4943167;28;20066;-67
2021/12/08 13:12:27;;;;;;;26.80;13.73;;;3.70;99.90;;;;;;4953229;28;20132;-67
2021/12/08 13:15:13;;;;;;;24.40;13.55;;;3.70;99.90;;;;;;4953365;28;20035;-67
2021/12/08 13:18:03;;;;;;;22.92;12.98;;;3.70;99.90;;;;;;4969457;28;20489;-67
2021/12/08 13:20:33;;;;;;;20.60;12.73;;;3.80;99.90;;;;;;4950165;28;20034;-66
2021/12/08 13:23:01;;;;;;;23.65;13.43;;;3.80;99.90;;;;;;4946243;28;20406;-67
2021/12/08 13:26:02;;;;;;;22.33;13.52;;;3.80;99.90;;;;;;4935447;29;20482;-66
2021/12/08 13:29:00;;;;;;;25.65;14.13;;;3.80;99.90;;;;;;4982971;28;20031;-68
2021/12/08 13:34:01;;;;;;;23.42;13.10;;;3.80;99.90;;;;;;4969152;28;20026;-67
2021/12/08 13:36:32;;;;;;;23.20;12.75;;;3.90;99.90;;;;;;4959754;28;20114;-66
2021/12/08 13:38:57;;;;;;;24.77;12.68;;;3.90;99.90;;;;;;4951427;28;20106;-67
2021/12/08 13:41:32;;;;;;;24.70;12.60;;;3.90;99.90;;;;;;4945232;29;20119;-66
2021/12/08 13:43:58;;;;;;;21.98;12.52;;;3.90;99.90;;;;;;4980440;28;20081;-67
2021/12/08 13:46:36;;;;;;;21.58;13.32;;;3.90;99.90;;;;;;4968531;28;20098;-67
2021/12/08 13:49:26;;;;;;;21.73;13.20;;;3.90;99.90;;;;;;4951732;28;20023;-66
2021/12/08 13:52:07;;;;;;;27.88;13.65;;;3.80;99.90;;;;;;4933510;29;20504;-66
2021/12/08 13:54:36;;;;;;;24.33;13.10;;;3.80;99.90;;;;;;4956027;28;20023;-66
2021/12/08 13:57:24;;;;;;;25.58;13.25;;;3.80;99.90;;;;;;4951840;28;20121;-66
2021/12/08 13:59:57;;;;;;;27.48;13.85;;;3.80;99.90;;;;;;4952442;28;20023;-67
2021/12/08 14:02:25;;;;;;;22.30;13.65;;;3.80;99.90;;;;;;4946596;29;20055;-66
2021/12/08 14:05:04;;;;;;;27.42;14.02;;;3.70;99.90;;;;;;4953046;28;20031;-66
2021/12/08 14:07:30;;;;;;;24.50;12.98;;;3.80;99.90;;;;;;4950108;28;20034;-66
2021/12/08 14:10:02;;;;;;;26.50;14.68;;;3.70;99.90;;;;;;4940828;28;20031;-65